sensor_id;sensor_type;location;lat;lon;timestamp;pressure;altitude;pressure_sealevel;temperature;humidity
16120;BME280;12670;53.502;10.252;2022-11-15T00:02:29;100778.53;;;8.50;99.45
16120;BME280;12670;53.502;10.252;2022-11-15T00:05:34;100776.69;;;8.53;99.42
16120;BME280;12670;53.502;10.252;2022-11-15T00:08:37;100774.09;;;8.52;98.79
16120;BME280;12670;53.502;10.252;2022-11-15T00:11:41;100788.31;;;8.48;99.46
16120;BME280;12670;53.502;10.252;2022-11-15T00:14:43;100774.22;;;8.47;98.69
16120;BME280;12670;53.502;10.252;2022-11-15T00:17:48;100775.03;;;8.49;98.92
16120;BME280;12670;53.502;10.252;2022-11-15T00:20:51;100779.59;;;8.46;97.98
16120;BME280;12670;53.502;10.252;2022-11-15T00:23:53;100783.16;;;8.45;98.39
16120;BME280;12670;53.502;10.252;2022-11-15T00:26:57;100783.03;;;8.48;97.93
16120;BME280;12670;53.502;10.252;2022-11-15T00:30:00;100782.16;;;8.47;99.38
16120;BME280;12670;53.502;10.252;2022-11-15T00:33:03;100786.69;;;8.44;99.90
16120;BME280;12670;53.502;10.252;2022-11-15T00:36:08;100782.31;;;8.43;99.78
16120;BME280;12670;53.502;10.252;2022-11-15T00:39:11;100785.06;;;8.40;99.13
16120;BME280;12670;53.502;10.252;2022-11-15T00:42:15;100789.50;;;8.39;99.09
16120;BME280;12670;53.502;10.252;2022-11-15T00:45:18;100791.16;;;8.42;98.98
16120;BME280;12670;53.502;10.252;2022-11-15T00:48:21;100776.47;;;8.32;98.63
16120;BME280;12670;53.502;10.252;2022-11-15T00:51:24;100776.66;;;8.25;98.53
16120;BME280;12670;53.502;10.252;2022-11-15T00:54:26;100782.81;;;8.26;98.41
16120;BME280;12670;53.502;10.252;2022-11-15T00:57:30;100784.50;;;8.28;99.08
16120;BME280;12670;53.502;10.252;2022-11-15T01:00:33;100779.78;;;8.40;98.92
16120;BME280;12670;53.502;10.252;2022-11-15T01:03:37;100788.72;;;8.36;99.64
16120;BME280;12670;53.502;10.252;2022-11-15T01:06:39;100778.72;;;8.45;99.52
16120;BME280;12670;53.502;10.252;2022-11-15T01:09:42;100775.72;;;8.56;99.73
16120;BME280;12670;53.502;10.252;2022-11-15T01:12:46;100777.66;;;8.51;99.96
16120;BME280;12670;53.502;10.252;2022-11-15T01:15:49;100770.44;;;8.56;100.00
16120;BME280;12670;53.502;10.252;2022-11-15T01:18:51;100765.75;;;8.64;99.89
16120;BME280;12670;53.502;10.252;2022-11-15T01:21:54;100758.03;;;8.58;99.36
16120;BME280;12670;53.502;10.252;2022-11-15T01:24:57;100768.94;;;8.47;99.02
16120;BME280;12670;53.502;10.252;2022-11-15T01:28:01;100763.91;;;8.40;99.45
16120;BME280;12670;53.502;10.252;2022-11-15T01:31:05;100760.34;;;8.41;99.25
16120;BME280;12670;53.502;10.252;2022-11-15T01:34:08;100753.53;;;8.32;100.00
16120;BME280;12670;53.502;10.252;2022-11-15T01:37:11;100757.00;;;8.36;100.00
16120;BME280;12670;53.502;10.252;2022-11-15T01:40:14;100745.34;;;8.41;100.00
16120;BME280;12670;53.502;10.252;2022-11-15T01:43:22;100751.41;;;8.45;99.45
16120;BME280;12670;53.502;10.252;2022-11-15T01:46:29;100744.66;;;8.35;100.00
16120;BME280;12670;53.502;10.252;2022-11-15T01:49:35;100739.44;;;8.33;99.82
16120;BME280;12670;53.502;10.252;2022-11-15T01:52:40;100742.00;;;8.36;99.13
16120;BME280;12670;53.502;10.252;2022-11-15T01:55:44;100739.44;;;8.33;99.30
16120;BME280;12670;53.502;10.252;2022-11-15T01:58:49;100732.44;;;8.31;99.06
16120;BME280;12670;53.502;10.252;2022-11-15T02:01:53;100734.53;;;8.21;99.71
16120;BME280;12670;53.502;10.252;2022-11-15T02:04:56;100727.16;;;8.31;99.58
16120;BME280;12670;53.502;10.252;2022-11-15T02:07:59;100716.72;;;8.27;99.11
16120;BME280;12670;53.502;10.252;2022-11-15T02:11:04;100718.13;;;8.38;99.49
16120;BME280;12670;53.502;10.252;2022-11-15T02:14:08;100716.72;;;8.27;99.01
16120;BME280;12670;53.502;10.252;2022-11-15T02:17:25;100718.63;;;8.22;99.80
16120;BME280;12670;53.502;10.252;2022-11-15T02:20:40;100716.91;;;8.21;100.00
16120;BME280;12670;53.502;10.252;2022-11-15T02:24:04;100718.44;;;8.28;100.00
16120;BME280;12670;53.502;10.252;2022-11-15T02:31:03;100722.88;;;8.26;100.00
16120;BME280;12670;53.502;10.252;2022-11-15T02:34:12;100716.72;;;8.27;100.00
16120;BME280;12670;53.502;10.252;2022-11-15T02:37:23;100709.41;;;8.36;100.00
16120;BME280;12670;53.502;10.252;2022-11-15T02:40:34;100698.84;;;8.36;99.81
16120;BME280;12670;53.502;10.252;2022-11-15T02:43:47;100699.56;;;8.41;100.00
16120;BME280;12670;53.502;10.252;2022-11-15T02:47:04;100700.16;;;8.49;99.52
16120;BME280;12670;53.502;10.252;2022-11-15T02:50:20;100698.53;;;8.45;99.56
16120;BME280;12670;53.502;10.252;2022-11-15T02:53:24;100698.63;;;8.42;99.98
16120;BME280;12670;53.502;10.252;2022-11-15T02:56:27;100709.41;;;8.36;99.70
16120;BME280;12670;53.502;10.252;2022-11-15T03:03:24;100708.34;;;8.41;100.00
16120;BME280;12670;53.502;10.252;2022-11-15T03:06:36;100706.69;;;8.39;100.00
16120;BME280;12670;53.502;10.252;2022-11-15T03:09:45;100697.84;;;8.38;100.00
16120;BME280;12670;53.502;10.252;2022-11-15T03:12:56;100693.34;;;8.42;100.00
16120;BME280;12670;53.502;10.252;2022-11-15T03:16:03;100696.91;;;8.41;100.00
16120;BME280;12670;53.502;10.252;2022-11-15T03:19:13;100699.34;;;8.47;99.88
16120;BME280;12670;53.502;10.252;2022-11-15T03:22:21;100697.75;;;8.41;100.00
16120;BME280;12670;53.502;10.252;2022-11-15T03:25:26;100699.34;;;8.47;99.58
16120;BME280;12670;53.502;10.252;2022-11-15T03:28:34;100696.78;;;8.44;100.00
16120;BME280;12670;53.502;10.252;2022-11-15T03:31:42;100700.34;;;8.43;100.00
16120;BME280;12670;53.502;10.252;2022-11-15T03:34:56;100692.63;;;8.37;100.00
16120;BME280;12670;53.502;10.252;2022-11-15T03:38:06;100696.78;;;8.44;100.00
16120;BME280;12670;53.502;10.252;2022-11-15T03:41:16;100690.63;;;8.43;100.00
16120;BME280;12670;53.502;10.252;2022-11-15T03:44:34;100686.34;;;8.41;100.00
16120;BME280;12670;53.502;10.252;2022-11-15T03:47:42;100677.72;;;8.34;100.00
16120;BME280;12670;53.502;10.252;2022-11-15T03:50:48;100688.91;;;8.42;100.00
16120;BME280;12670;53.502;10.252;2022-11-15T03:53:51;100686.50;;;8.35;100.00
16120;BME280;12670;53.502;10.252;2022-11-15T03:56:54;100683.69;;;8.41;100.00
16120;BME280;12670;53.502;10.252;2022-11-15T03:59:56;100678.28;;;8.44;100.00
16120;BME280;12670;53.502;10.252;2022-11-15T04:02:59;100679.97;;;8.46;100.00
16120;BME280;12670;53.502;10.252;2022-11-15T04:06:03;100679.13;;;8.46;100.00
16120;BME280;12670;53.502;10.252;2022-11-15T04:09:06;100675.63;;;8.44;100.00
16120;BME280;12670;53.502;10.252;2022-11-15T04:12:09;100678.06;;;8.50;100.00
16120;BME280;12670;53.502;10.252;2022-11-15T04:15:13;100673.69;;;8.49;100.00
16120;BME280;12670;53.502;10.252;2022-11-15T04:18:16;100674.53;;;8.51;99.88
16120;BME280;12670;53.502;10.252;2022-11-15T04:21:20;100677.06;;;8.54;99.48
16120;BME280;12670;53.502;10.252;2022-11-15T04:24:40;100685.19;;;8.48;99.66
16120;BME280;12670;53.502;10.252;2022-11-15T04:27:43;100684.41;;;8.46;100.00
16120;BME280;12670;53.502;10.252;2022-11-15T04:30:46;100673.19;;;8.38;99.89
16120;BME280;12670;53.502;10.252;2022-11-15T04:33:48;100680.94;;;8.44;100.00
16120;BME280;12670;53.502;10.252;2022-11-15T04:36:52;100682.28;;;8.29;100.00
16120;BME280;12670;53.502;10.252;2022-11-15T04:40:13;100685.72;;;8.31;100.00
16120;BME280;12670;53.502;10.252;2022-11-15T04:43:15;100692.84;;;8.29;100.00
16120;BME280;12670;53.502;10.252;2022-11-15T04:46:18;100686.41;;;8.39;100.00
16120;BME280;12670;53.502;10.252;2022-11-15T04:49:21;100689.03;;;8.39;100.00
16120;BME280;12670;53.502;10.252;2022-11-15T04:52:25;100690.41;;;8.51;100.00
16120;BME280;12670;53.502;10.252;2022-11-15T04:55:27;100697.00;;;8.64;100.00
16120;BME280;12670;53.502;10.252;2022-11-15T04:58:30;100692.72;;;8.60;100.00
16120;BME280;12670;53.502;10.252;2022-11-15T05:01:32;100691.56;;;8.69;100.00
16120;BME280;12670;53.502;10.252;2022-11-15T05:04:36;100686.03;;;8.75;100.00
16120;BME280;12670;53.502;10.252;2022-11-15T05:07:40;100685.19;;;8.74;100.00
16120;BME280;12670;53.502;10.252;2022-11-15T05:10:42;100687.41;;;8.87;100.00
16120;BME280;12670;53.502;10.252;2022-11-15T05:13:45;100681.06;;;8.91;100.00
16120;BME280;12670;53.502;10.252;2022-11-15T05:16:48;100686.03;;;9.00;100.00
16120;BME280;12670;53.502;10.252;2022-11-15T05:19:51;100680.72;;;9.00;100.00
16120;BME280;12670;53.502;10.252;2022-11-15T05:22:55;100683.28;;;9.03;100.00
16120;BME280;12670;53.502;10.252;2022-11-15T05:25:59;100678.03;;;9.01;100.00
16120;BME280;12670;53.502;10.252;2022-11-15T05:29:09;100671.88;;;9.01;100.00
16120;BME280;12670;53.502;10.252;2022-11-15T05:32:12;100676.41;;;8.72;100.00
16120;BME280;12670;53.502;10.252;2022-11-15T05:35:19;100670.03;;;8.78;100.00
16120;BME280;12670;53.502;10.252;2022-11-15T05:38:25;100673.50;;;8.55;100.00
16120;BME280;12670;53.502;10.252;2022-11-15T05:41:32;100672.84;;;8.48;100.00
16120;BME280;12670;53.502;10.252;2022-11-15T05:44:36;100670.47;;;8.41;100.00
16120;BME280;12670;53.502;10.252;2022-11-15T05:47:41;100665.06;;;8.44;100.00
16120;BME280;12670;53.502;10.252;2022-11-15T05:50:46;100668.63;;;8.43;100.00
16120;BME280;12670;53.502;10.252;2022-11-15T05:53:51;100671.28;;;8.43;99.99
16120;BME280;12670;53.502;10.252;2022-11-15T05:56:55;100673.25;;;8.36;100.00
16120;BME280;12670;53.502;10.252;2022-11-15T05:59:58;100667.28;;;8.29;99.66
16120;BME280;12670;53.502;10.252;2022-11-15T06:03:01;100681.31;;;8.32;99.21
16120;BME280;12670;53.502;10.252;2022-11-15T06:06:04;100687.44;;;8.32;99.15
16120;BME280;12670;53.502;10.252;2022-11-15T06:09:08;100685.00;;;8.27;98.75
16120;BME280;12670;53.502;10.252;2022-11-15T06:12:10;100686.78;;;8.27;100.00
16120;BME280;12670;53.502;10.252;2022-11-15T06:15:13;100700.06;;;8.24;100.00
16120;BME280;12670;53.502;10.252;2022-11-15T06:18:15;100702.78;;;8.22;99.82
16120;BME280;12670;53.502;10.252;2022-11-15T06:21:18;100699.63;;;8.38;100.00
16120;BME280;12670;53.502;10.252;2022-11-15T06:24:22;100696.91;;;8.41;100.00
16120;BME280;12670;53.502;10.252;2022-11-15T06:27:25;100702.13;;;8.42;100.00
16120;BME280;12670;53.502;10.252;2022-11-15T06:30:27;100706.41;;;8.46;100.00
16120;BME280;12670;53.502;10.252;2022-11-15T06:33:30;100707.28;;;8.47;100.00
16120;BME280;12670;53.502;10.252;2022-11-15T06:36:34;100709.13;;;8.45;100.00
16120;BME280;12670;53.502;10.252;2022-11-15T06:39:38;100719.22;;;8.59;100.00
16120;BME280;12670;53.502;10.252;2022-11-15T06:42:40;100711.94;;;8.65;100.00
16120;BME280;12670;53.502;10.252;2022-11-15T06:45:43;100709.22;;;8.67;100.00
16120;BME280;12670;53.502;10.252;2022-11-15T06:48:46;100719.72;;;8.70;100.00
16120;BME280;12670;53.502;10.252;2022-11-15T06:51:49;100715.16;;;8.73;100.00
16120;BME280;12670;53.502;10.252;2022-11-15T06:54:53;100716.94;;;8.74;100.00
16120;BME280;12670;53.502;10.252;2022-11-15T06:57:55;100717.88;;;8.72;100.00
16120;BME280;12670;53.502;10.252;2022-11-15T07:00:59;100713.44;;;8.72;100.00
16120;BME280;12670;53.502;10.252;2022-11-15T07:04:02;100714.00;;;8.57;100.00
16120;BME280;12670;53.502;10.252;2022-11-15T07:07:05;100711.78;;;8.70;100.00
16120;BME280;12670;53.502;10.252;2022-11-15T07:10:09;100719.28;;;8.82;100.00
16120;BME280;12670;53.502;10.252;2022-11-15T07:13:12;100721.66;;;8.90;100.00
16120;BME280;12670;53.502;10.252;2022-11-15T07:16:14;100717.84;;;8.98;100.00
16120;BME280;12670;53.502;10.252;2022-11-15T07:19:17;100725.66;;;9.01;100.00
16120;BME280;12670;53.502;10.252;2022-11-15T07:22:19;100724.84;;;8.99;100.00
16120;BME280;12670;53.502;10.252;2022-11-15T07:25:23;100734.66;;;8.97;100.00
16120;BME280;12670;53.502;10.252;2022-11-15T07:28:27;100730.09;;;9.01;100.00
16120;BME280;12670;53.502;10.252;2022-11-15T07:31:30;100734.47;;;9.02;100.00
16120;BME280;12670;53.502;10.252;2022-11-15T07:34:32;100742.19;;;9.08;100.00
16120;BME280;12670;53.502;10.252;2022-11-15T07:37:35;100738.50;;;9.12;100.00
16120;BME280;12670;53.502;10.252;2022-11-15T07:40:39;100743.50;;;9.21;100.00
16120;BME280;12670;53.502;10.252;2022-11-15T07:43:42;100746.28;;;9.17;100.00
16120;BME280;12670;53.502;10.252;2022-11-15T07:46:44;100741.63;;;9.23;100.00
16120;BME280;12670;53.502;10.252;2022-11-15T07:49:47;100738.69;;;9.31;100.00
16120;BME280;12670;53.502;10.252;2022-11-15T07:52:53;100736.03;;;9.32;100.00
16120;BME280;12670;53.502;10.252;2022-11-15T07:55:57;100738.84;;;9.28;100.00
16120;BME280;12670;53.502;10.252;2022-11-15T07:59:00;100747.41;;;9.34;100.00
16120;BME280;12670;53.502;10.252;2022-11-15T08:02:03;100749.19;;;9.34;100.00
16120;BME280;12670;53.502;10.252;2022-11-15T08:05:06;100746.38;;;9.39;100.00
16120;BME280;12670;53.502;10.252;2022-11-15T08:08:10;100736.59;;;9.41;100.00
16120;BME280;12670;53.502;10.252;2022-11-15T08:11:14;100735.81;;;9.37;100.00
16120;BME280;12670;53.502;10.252;2022-11-15T08:14:17;100729.50;;;9.41;100.00
16120;BME280;12670;53.502;10.252;2022-11-15T08:17:20;100732.94;;;9.43;100.00
16120;BME280;12670;53.502;10.252;2022-11-15T08:20:23;100739.00;;;9.47;100.00
16120;BME280;12670;53.502;10.252;2022-11-15T08:23:25;100739.81;;;9.49;100.00
16120;BME280;12670;53.502;10.252;2022-11-15T08:26:30;100737.91;;;9.52;100.00
16120;BME280;12670;53.502;10.252;2022-11-15T08:29:33;100736.06;;;9.54;100.00
16120;BME280;12670;53.502;10.252;2022-11-15T08:32:35;100721.69;;;9.61;100.00
16120;BME280;12670;53.502;10.252;2022-11-15T08:35:38;100732.28;;;9.61;100.00
16120;BME280;12670;53.502;10.252;2022-11-15T08:38:41;100732.63;;;9.52;100.00
16120;BME280;12670;53.502;10.252;2022-11-15T08:41:45;100733.38;;;9.56;100.00
16120;BME280;12670;53.502;10.252;2022-11-15T08:44:47;100723.03;;;9.50;100.00
16120;BME280;12670;53.502;10.252;2022-11-15T08:47:50;100734.25;;;9.56;100.00
16120;BME280;12670;53.502;10.252;2022-11-15T08:50:55;100720.06;;;9.57;100.00
16120;BME280;12670;53.502;10.252;2022-11-15T08:53:58;100725.75;;;9.70;100.00
16120;BME280;12670;53.502;10.252;2022-11-15T08:57:02;100720.00;;;9.82;100.00
16120;BME280;12670;53.502;10.252;2022-11-15T09:00:06;100719.50;;;9.95;100.00
16120;BME280;12670;53.502;10.252;2022-11-15T09:03:08;100731.59;;;10.02;99.89
16120;BME280;12670;53.502;10.252;2022-11-15T09:06:11;100728.56;;;10.11;100.00
16120;BME280;12670;53.502;10.252;2022-11-15T09:09:14;100722.28;;;10.13;100.00
16120;BME280;12670;53.502;10.252;2022-11-15T09:12:18;100724.34;;;10.29;100.00
16120;BME280;12670;53.502;10.252;2022-11-15T09:15:21;100724.72;;;10.41;99.71
16120;BME280;12670;53.502;10.252;2022-11-15T09:18:24;100730.31;;;10.56;99.65
16120;BME280;12670;53.502;10.252;2022-11-15T09:21:28;100714.34;;;10.57;98.53
16120;BME280;12670;53.502;10.252;2022-11-15T09:24:31;100723.06;;;10.59;98.12
16120;BME280;12670;53.502;10.252;2022-11-15T09:27:35;100730.91;;;10.83;97.83
16120;BME280;12670;53.502;10.252;2022-11-15T09:30:38;100727.06;;;10.90;98.22
16120;BME280;12670;53.502;10.252;2022-11-15T09:33:43;100733.38;;;10.87;98.36
16120;BME280;12670;53.502;10.252;2022-11-15T09:36:46;100733.50;;;10.84;98.27
16120;BME280;12670;53.502;10.252;2022-11-15T09:39:48;100737.56;;;10.93;98.49
16120;BME280;12670;53.502;10.252;2022-11-15T09:43:03;100736.97;;;10.86;98.63
16120;BME280;12670;53.502;10.252;2022-11-15T09:46:15;100737.50;;;10.94;98.06
16120;BME280;12670;53.502;10.252;2022-11-15T09:49:22;100736.22;;;10.83;97.65
16120;BME280;12670;53.502;10.252;2022-11-15T09:52:25;100740.41;;;10.88;98.12
16120;BME280;12670;53.502;10.252;2022-11-15T09:55:33;100737.38;;;10.98;99.28
16120;BME280;12670;53.502;10.252;2022-11-15T09:58:44;100731.72;;;11.05;98.07
16120;BME280;12670;53.502;10.252;2022-11-15T10:01:56;100731.44;;;11.11;99.94
16120;BME280;12670;53.502;10.252;2022-11-15T10:05:02;100722.63;;;11.11;99.85
16120;BME280;12670;53.502;10.252;2022-11-15T10:08:13;100724.22;;;11.15;99.64
16120;BME280;12670;53.502;10.252;2022-11-15T10:11:20;100732.03;;;11.18;100.00
16120;BME280;12670;53.502;10.252;2022-11-15T10:14:42;100721.03;;;11.27;99.75
16120;BME280;12670;53.502;10.252;2022-11-15T10:21:17;100715.81;;;11.44;100.00
16120;BME280;12670;53.502;10.252;2022-11-15T10:24:25;100713.66;;;11.53;100.00
16120;BME280;12670;53.502;10.252;2022-11-15T10:27:29;100711.84;;;11.53;100.00
16120;BME280;12670;53.502;10.252;2022-11-15T10:30:36;100707.06;;;11.61;100.00
16120;BME280;12670;53.502;10.252;2022-11-15T10:33:39;100703.47;;;11.62;99.79
16120;BME280;12670;53.502;10.252;2022-11-15T10:36:44;100704.97;;;11.68;99.59
16120;BME280;12670;53.502;10.252;2022-11-15T10:40:03;100700.44;;;11.70;100.00
16120;BME280;12670;53.502;10.252;2022-11-15T10:43:14;100706.41;;;11.75;100.00
16120;BME280;12670;53.502;10.252;2022-11-15T10:46:20;100696.06;;;11.69;100.00
16120;BME280;12670;53.502;10.252;2022-11-15T10:49:54;100691.81;;;11.65;100.00
16120;BME280;12670;53.502;10.252;2022-11-15T10:52:57;100684.06;;;11.79;100.00
16120;BME280;12670;53.502;10.252;2022-11-15T10:56:05;100676.81;;;11.83;100.00
16120;BME280;12670;53.502;10.252;2022-11-15T10:59:16;100671.44;;;11.84;100.00
16120;BME280;12670;53.502;10.252;2022-11-15T11:02:31;100669.91;;;11.97;100.00
16120;BME280;12670;53.502;10.252;2022-11-15T11:05:36;100662.59;;;12.03;99.92
16120;BME280;12670;53.502;10.252;2022-11-15T11:08:54;100666.97;;;12.04;100.00
16120;BME280;12670;53.502;10.252;2022-11-15T11:11:58;100665.59;;;11.95;99.54
16120;BME280;12670;53.502;10.252;2022-11-15T11:15:02;100660.84;;;12.01;99.90
16120;BME280;12670;53.502;10.252;2022-11-15T11:18:17;100653.81;;;12.00;100.00
16120;BME280;12670;53.502;10.252;2022-11-15T11:21:29;100649.03;;;12.07;99.25
16120;BME280;12670;53.502;10.252;2022-11-15T11:24:44;100640.53;;;12.18;99.95
16120;BME280;12670;53.502;10.252;2022-11-15T11:27:59;100644.69;;;12.23;100.00
16120;BME280;12670;53.502;10.252;2022-11-15T11:31:16;100640.09;;;12.27;100.00
16120;BME280;12670;53.502;10.252;2022-11-15T11:34:36;100647.97;;;12.28;100.00
16120;BME280;12670;53.502;10.252;2022-11-15T11:37:47;100648.16;;;12.25;100.00
16120;BME280;12670;53.502;10.252;2022-11-15T11:41:00;100640.41;;;12.21;100.00
16120;BME280;12670;53.502;10.252;2022-11-15T11:44:17;100634.06;;;12.23;100.00
16120;BME280;12670;53.502;10.252;2022-11-15T11:47:22;100640.22;;;12.24;100.00
16120;BME280;12670;53.502;10.252;2022-11-15T11:50:27;100637.25;;;12.30;100.00
16120;BME280;12670;53.502;10.252;2022-11-15T11:53:35;100631.00;;;12.31;99.99
16120;BME280;12670;53.502;10.252;2022-11-15T11:56:44;100621.59;;;12.24;99.13
16120;BME280;12670;53.502;10.252;2022-11-15T11:59:51;100629.28;;;12.30;98.56
16120;BME280;12670;53.502;10.252;2022-11-15T12:03:03;100611.59;;;12.29;98.94
16120;BME280;12670;53.502;10.252;2022-11-15T12:06:23;100611.47;;;12.32;99.29
16120;BME280;12670;53.502;10.252;2022-11-15T12:09:32;100605.09;;;12.35;99.26
16120;BME280;12670;53.502;10.252;2022-11-15T12:12:39;100617.16;;;12.24;99.23
16120;BME280;12670;53.502;10.252;2022-11-15T12:15:47;100605.97;;;12.35;99.47
16120;BME280;12670;53.502;10.252;2022-11-15T12:18:53;100609.56;;;12.34;99.53
16120;BME280;12670;53.502;10.252;2022-11-15T12:22:01;100614.75;;;12.37;98.18
16120;BME280;12670;53.502;10.252;2022-11-15T12:25:08;100603.16;;;12.38;98.88
16120;BME280;12670;53.502;10.252;2022-11-15T12:28:20;100600.00;;;12.47;99.87
16120;BME280;12670;53.502;10.252;2022-11-15T12:31:35;100591.47;;;12.58;98.98
16120;BME280;12670;53.502;10.252;2022-11-15T12:34:44;100586.03;;;12.77;99.73
16120;BME280;12670;53.502;10.252;2022-11-15T12:37:50;100578.56;;;12.68;98.22
16120;BME280;12670;53.502;10.252;2022-11-15T12:41:14;100580.72;;;12.77;98.20
16120;BME280;12670;53.502;10.252;2022-11-15T12:52:06;100589.72;;;13.07;97.49
16120;BME280;12670;53.502;10.252;2022-11-15T12:55:32;100591.25;;;13.12;97.36
16120;BME280;12670;53.502;10.252;2022-11-15T12:58:42;100581.59;;;12.93;97.30
16120;BME280;12670;53.502;10.252;2022-11-15T13:02:00;100576.22;;;13.11;95.69
16120;BME280;12670;53.502;10.252;2022-11-15T13:08:48;100579.66;;;13.13;96.94
16120;BME280;12670;53.502;10.252;2022-11-15T13:11:54;100574.94;;;13.18;96.43
16120;BME280;12670;53.502;10.252;2022-11-15T13:14:58;100556.44;;;13.32;96.23
16120;BME280;12670;53.502;10.252;2022-11-15T13:18:32;100558.06;;;13.34;96.62
16120;BME280;12670;53.502;10.252;2022-11-15T13:21:47;100558.91;;;13.35;96.54
16120;BME280;12670;53.502;10.252;2022-11-15T13:25:15;100549.53;;;13.28;97.04
16120;BME280;12670;53.502;10.252;2022-11-15T13:28:29;100546.31;;;13.05;97.36
16120;BME280;12670;53.502;10.252;2022-11-15T13:31:37;100539.78;;;13.11;97.39
16120;BME280;12670;53.502;10.252;2022-11-15T13:34:44;100531.91;;;13.10;97.83
16120;BME280;12670;53.502;10.252;2022-11-15T13:37:54;100518.56;;;12.94;96.66
16120;BME280;12670;53.502;10.252;2022-11-15T13:40:58;100515.31;;;13.04;98.14
16120;BME280;12670;53.502;10.252;2022-11-15T13:44:03;100516.06;;;13.06;97.25
16120;BME280;12670;53.502;10.252;2022-11-15T13:47:09;100502.44;;;13.28;97.46
16120;BME280;12670;53.502;10.252;2022-11-15T13:50:15;100508.53;;;13.15;96.39
16120;BME280;12670;53.502;10.252;2022-11-15T13:53:18;100507.41;;;13.19;97.87
16120;BME280;12670;53.502;10.252;2022-11-15T13:56:21;100503.66;;;13.23;97.36
16120;BME280;12670;53.502;10.252;2022-11-15T13:59:26;100500.03;;;13.24;97.48
16120;BME280;12670;53.502;10.252;2022-11-15T14:02:32;100507.16;;;13.23;97.81
16120;BME280;12670;53.502;10.252;2022-11-15T14:05:36;100503.50;;;13.26;96.62
16120;BME280;12670;53.502;10.252;2022-11-15T14:08:40;100510.69;;;13.24;96.63
16120;BME280;12670;53.502;10.252;2022-11-15T14:11:50;100513.00;;;13.62;94.65
16120;BME280;12670;53.502;10.252;2022-11-15T14:14:55;100515.75;;;13.90;91.70
16120;BME280;12670;53.502;10.252;2022-11-15T14:17:58;100522.50;;;13.66;93.75
16120;BME280;12670;53.502;10.252;2022-11-15T14:21:05;100522.00;;;13.59;93.60
16120;BME280;12670;53.502;10.252;2022-11-15T14:24:14;100510.78;;;13.38;94.19
16120;BME280;12670;53.502;10.252;2022-11-15T14:27:23;100505.69;;;13.18;95.20
16120;BME280;12670;53.502;10.252;2022-11-15T14:30:27;100505.88;;;13.15;95.24
16120;BME280;12670;53.502;10.252;2022-11-15T14:33:32;100498.63;;;13.01;96.61
16120;BME280;12670;53.502;10.252;2022-11-15T14:36:35;100497.09;;;12.81;97.36
16120;BME280;12670;53.502;10.252;2022-11-15T14:39:38;100495.28;;;12.81;97.16
16120;BME280;12670;53.502;10.252;2022-11-15T14:42:41;100495.53;;;12.77;98.33
16120;BME280;12670;53.502;10.252;2022-11-15T14:45:45;100499.38;;;12.71;98.08
16120;BME280;12670;53.502;10.252;2022-11-15T14:48:47;100489.59;;;12.56;99.85
16120;BME280;12670;53.502;10.252;2022-11-15T14:51:50;100494.66;;;12.61;99.33
16120;BME280;12670;53.502;10.252;2022-11-15T14:54:53;100501.00;;;12.58;98.46
16120;BME280;12670;53.502;10.252;2022-11-15T14:57:55;100500.03;;;12.43;99.10
16120;BME280;12670;53.502;10.252;2022-11-15T15:01:01;100493.91;;;12.41;99.62
16120;BME280;12670;53.502;10.252;2022-11-15T15:04:04;100489.72;;;12.37;100.00
16120;BME280;12670;53.502;10.252;2022-11-15T15:07:07;100485.56;;;12.32;100.00
16120;BME280;12670;53.502;10.252;2022-11-15T15:10:10;100484.56;;;12.17;100.00
16120;BME280;12670;53.502;10.252;2022-11-15T15:13:33;100480.81;;;12.21;100.00
16120;BME280;12670;53.502;10.252;2022-11-15T15:16:37;100483.72;;;12.16;100.00
16120;BME280;12670;53.502;10.252;2022-11-15T15:19:40;100484.75;;;12.14;100.00
16120;BME280;12670;53.502;10.252;2022-11-15T15:22:43;100486.59;;;12.12;100.00
16120;BME280;12670;53.502;10.252;2022-11-15T15:25:47;100488.63;;;12.07;100.00
16120;BME280;12670;53.502;10.252;2022-11-15T15:28:50;100486.47;;;11.97;100.00
16120;BME280;12670;53.502;10.252;2022-11-15T15:31:54;100485.66;;;11.95;100.00
16120;BME280;12670;53.502;10.252;2022-11-15T15:34:57;100487.25;;;11.99;100.00
16120;BME280;12670;53.502;10.252;2022-11-15T15:38:00;100491.63;;;12.00;100.00
16120;BME280;12670;53.502;10.252;2022-11-15T15:41:03;100485.84;;;11.92;100.00
16120;BME280;12670;53.502;10.252;2022-11-15T15:44:06;100482.09;;;11.96;100.00
16120;BME280;12670;53.502;10.252;2022-11-15T15:47:11;100482.09;;;11.96;100.00
16120;BME280;12670;53.502;10.252;2022-11-15T15:50:21;100478.50;;;11.97;100.00
16120;BME280;12670;53.502;10.252;2022-11-15T15:53:24;100479.75;;;11.90;100.00
16120;BME280;12670;53.502;10.252;2022-11-15T15:56:27;100485.06;;;11.90;100.00
16120;BME280;12670;53.502;10.252;2022-11-15T15:59:30;100481.53;;;11.90;100.00
16120;BME280;12670;53.502;10.252;2022-11-15T16:02:34;100482.09;;;11.96;100.00
16120;BME280;12670;53.502;10.252;2022-11-15T16:05:41;100485.00;;;11.92;100.00
16120;BME280;12670;53.502;10.252;2022-11-15T16:08:43;100488.41;;;11.94;100.00
16120;BME280;12670;53.502;10.252;2022-11-15T16:12:06;100480.44;;;11.94;100.00
16120;BME280;12670;53.502;10.252;2022-11-15T16:15:09;100485.13;;;11.89;100.00
16120;BME280;12670;53.502;10.252;2022-11-15T16:18:15;100462.59;;;11.79;100.00
16120;BME280;12670;53.502;10.252;2022-11-15T16:21:18;100459.72;;;11.83;100.00
16120;BME280;12670;53.502;10.252;2022-11-15T16:24:21;100462.69;;;11.94;100.00